Česky Dansk Deutsch English Español Suomi Français Magyar Italiano Nederlands norsk Polski Português svenska Türkçe

 

Het Weer

Vilnius (Litouwen)

14:20, 21 augustus 2016 (GMT)

NWNNE
WE
SWSSE
Home            
Vilnius Kaunas Grodno Siauliai Intl./Mil. Loshitsa / Minsk International 1 Minsk Riga International Airport Riga Brest Palanga Intl. Kaliningrad/Khrabrovo Airport Liepaja International Airport Vitebsk Ventspils Warszawa-Okecie Velikie Luki Tartu/Ulenurme Parnu Gdansk-Rebiechowo Kuressaare Gomel' Rivne Kardla

Om een weerknop op uw website of weblog te plaatsen, copieer onderstaande code en plak die in uw pagina. In het eerste vakje staat HTML-code, in het tweede vakje UBB-code.


Add to Google

Details

Wind speed:4 bf, 11 kn, 5.7 m/s, 12.7 miles/h, 20.4 km/h
Wind direction:SE, 140°
Visibility:Greater than 10000 m, 10 km, 32800 ft, 6.2 miles
Clouds:CAVOC
Temperature:26°C, 79°F
Gefühlte Temperatur:27°C, 80°F
Dew-point:15°C, 59°F
Atmospheric pressure:1018 hPa, 763.6 mmHg, 30.06 inHg, 1.005 atm
Relative humidity:50.7 %
METAR:EYVI 211420Z 14011KT CAVOK 26/15 Q1018 NOSIG

Snelkoppelingen

Actuele weersinformatie van de hele wereld. Voeg locaties toe met het plus (+) symbool. Deze snelkoppelingen kunnen worden toegevoegd aan Google.

Lid van de Technetium groep

website free tracking
StatCounter NetStat W3C Validator

24-10-2020 08:29:48
astro.technetium.be money.technetium.be phote.technetium.be tafeltennistafel.technetium.be www.ligfiets.net